Time;durP1;ratioP1;P1;durP2;ratioP2;P2;SDS_P1;SDS_P2;PMS_P1;PMS_P2;Temp;Humidity;BMP_temperature;BMP_pressure;BME280_temperature;BME280_humidity;BME280_pressure;Samples;Min_cycle;Max_cycle;Signal;HPM_P1;HPM_P2
2022/02/19 00:01:06;;;;;;;4.15;2.67;;;;;;;2.02;100.00;96974.47;4790773;29;20050;-79
2022/02/19 00:03:31;;;;;;;5.57;3.00;;;;;;;2.04;100.00;96972.38;4785499;29;20039;-79
2022/02/19 00:05:57;;;;;;;4.60;3.10;;;;;;;2.08;100.00;96971.66;4770569;30;20059;-79
2022/02/19 00:08:22;;;;;;;3.65;2.55;;;;;;;2.09;100.00;96975.16;4772182;30;20129;-79
2022/02/19 00:10:48;;;;;;;6.65;3.25;;;;;;;2.08;100.00;96970.88;4771551;30;20455;-79
2022/02/19 00:13:15;;;;;;;9.93;3.03;;;;;;;2.09;100.00;96983.09;4772480;30;20104;-79
2022/02/19 00:15:41;;;;;;;5.22;3.10;;;;;;;2.18;100.00;96989.59;4770772;30;20477;-79
2022/02/19 00:18:07;;;;;;;8.18;3.55;;;;;;;2.19;100.00;96991.22;4741580;30;20142;-79
2022/02/19 00:20:32;;;;;;;4.80;3.28;;;;;;;2.22;100.00;96989.94;4756621;30;20437;-79
2022/02/19 00:22:58;;;;;;;4.97;3.55;;;;;;;2.16;100.00;96994.34;4761549;30;20054;-79
2022/02/19 00:25:25;;;;;;;7.10;3.22;;;;;;;1.87;100.00;96973.16;4759531;30;20052;-79
2022/02/19 00:27:50;;;;;;;5.75;3.47;;;;;;;1.97;100.00;97000.91;4771159;30;20075;-80
2022/02/19 00:30:16;;;;;;;6.78;3.30;;;;;;;1.73;100.00;96963.91;4769464;30;20071;-79
2022/02/19 00:32:41;;;;;;;5.05;3.70;;;;;;;1.58;100.00;96937.09;4771193;30;20161;-79
2022/02/19 00:35:07;;;;;;;6.53;3.53;;;;;;;2.06;100.00;96999.47;4771342;30;20055;-79
2022/02/19 00:37:32;;;;;;;6.68;3.72;;;;;;;2.05;100.00;97006.63;4770011;30;20032;-80
2022/02/19 00:39:59;;;;;;;9.70;3.78;;;;;;;2.07;100.00;97014.34;4770465;30;20539;-80
2022/02/19 00:42:26;;;;;;;8.82;3.90;;;;;;;2.03;100.00;97005.25;4769514;30;20035;-80
2022/02/19 00:44:53;;;;;;;8.02;4.00;;;;;;;1.77;100.00;96964.22;4774835;30;20035;-79
2022/02/19 00:47:19;;;;;;;5.60;4.18;;;;;;;2.10;100.00;97008.56;4771233;30;20485;-79
2022/02/19 00:49:45;;;;;;;5.00;3.70;;;;;;;2.14;100.00;97017.66;4790765;30;20039;-78
2022/02/19 00:52:10;;;;;;;5.55;3.28;;;;;;;2.00;100.00;97016.34;4769407;30;20054;-79
2022/02/19 00:54:36;;;;;;;4.47;3.33;;;;;;;2.02;100.00;97022.19;4755372;30;20052;-79
2022/02/19 00:57:01;;;;;;;5.55;2.67;;;;;;;2.13;100.00;97031.97;4767954;30;20044;-79
2022/02/19 00:59:26;;;;;;;5.15;2.50;;;;;;;1.95;100.00;97003.78;4753150;30;20290;-79
2022/02/19 01:01:52;;;;;;;3.58;2.17;;;;;;;2.07;100.00;97017.00;4754660;30;20039;-79
2022/02/19 01:04:19;;;;;;;4.13;2.30;;;;;;;2.03;100.00;97014.03;4771109;30;20044;-80
2022/02/19 01:06:44;;;;;;;5.95;2.00;;;;;;;1.95;100.00;97011.72;4769757;30;20462;-79
2022/02/19 01:09:10;;;;;;;3.08;1.50;;;;;;;1.94;100.00;97052.53;4770884;30;20035;-79
2022/02/19 01:11:39;;;;;;;1.83;1.10;;;;;;;1.74;100.00;97063.56;4769531;30;20038;-79
2022/02/19 01:14:09;;;;;;;3.88;1.38;;;;;;;1.75;100.00;97056.41;4771654;30;20135;-79
2022/02/19 01:16:35;;;;;;;1.55;1.00;;;;;;;1.54;100.00;97041.94;4769614;30;20031;-79
2022/02/19 01:19:00;;;;;;;1.10;0.90;;;;;;;1.59;100.00;97065.88;4770827;30;20032;-79
2022/02/19 01:21:25;;;;;;;5.00;1.08;;;;;;;1.48;100.00;97053.47;4771335;30;20050;-79
2022/02/19 01:23:51;;;;;;;4.03;1.00;;;;;;;1.45;100.00;97062.69;4769887;30;20275;-79
2022/02/19 01:26:16;;;;;;;1.52;0.98;;;;;;;1.31;100.00;97053.38;4771669;30;20055;-80
2022/02/19 01:28:42;;;;;;;2.08;1.00;;;;;;;1.31;100.00;97063.97;4768699;30;20120;-80
2022/02/19 01:31:07;;;;;;;1.02;0.90;;;;;;;1.33;100.00;97077.81;4776585;30;20059;-80
2022/02/19 01:33:33;;;;;;;3.35;1.10;;;;;;;1.24;100.00;97072.03;4770621;30;20102;-79
2022/02/19 01:35:59;;;;;;;1.20;1.10;;;;;;;1.27;100.00;97084.81;4768300;30;20546;-79
2022/02/19 01:38:24;;;;;;;1.60;1.13;;;;;;;1.24;100.00;97069.38;4769894;30;20459;-79
2022/02/19 01:40:51;;;;;;;1.42;1.00;;;;;;;1.39;100.00;97093.56;4770494;30;20039;-79
2022/02/19 01:43:16;;;;;;;1.50;1.40;;;;;;;1.32;100.00;97086.75;4771235;30;20074;-79
2022/02/19 01:45:45;;;;;;;1.60;1.50;;;;;;;1.30;100.00;97081.72;4766807;30;20124;-79
2022/02/19 01:48:11;;;;;;;2.17;1.58;;;;;;;1.36;100.00;97101.19;4769781;30;20081;-79
2022/02/19 01:50:37;;;;;;;1.67;1.58;;;;;;;1.34;100.00;97097.94;4759257;30;20077;-79
2022/02/19 01:53:03;;;;;;;2.63;1.50;;;;;;;0.80;100.00;97028.41;4768642;30;20043;-79
2022/02/19 01:55:28;;;;;;;2.47;1.00;;;;;;;1.38;100.00;97113.13;4769670;30;20051;-79
2022/02/19 01:57:56;;;;;;;2.08;1.00;;;;;;;1.33;100.00;97115.69;4771003;30;20098;-79
2022/02/19 02:00:23;;;;;;;3.25;1.02;;;;;;;1.10;100.00;97083.91;4799252;30;20027;-79
2022/02/19 02:02:49;;;;;;;2.85;0.50;;;;;;;1.29;100.00;97125.13;4777087;29;20467;-80
2022/02/19 02:05:14;;;;;;;0.65;0.30;;;;;;;1.18;100.00;97117.97;4740483;30;20039;-80
2022/02/19 02:07:40;;;;;;;0.20;0.20;;;;;;;1.25;100.00;97136.41;4769205;30;20067;-79
2022/02/19 02:10:07;;;;;;;0.20;0.20;;;;;;;0.98;100.00;97101.59;4755360;30;20032;-80
2022/02/19 02:12:35;;;;;;;1.75;0.20;;;;;;;1.02;100.00;97129.22;4769035;30;20035;-79
2022/02/19 02:15:00;;;;;;;0.65;0.20;;;;;;;1.15;100.00;97144.91;4771185;30;20047;-79
2022/02/19 02:17:26;;;;;;;0.35;0.20;;;;;;;1.05;100.00;97158.69;4769559;30;20040;-79
2022/02/19 02:19:51;;;;;;;0.50;0.30;;;;;;;1.10;100.00;97166.78;4752548;30;20039;-80
2022/02/19 02:22:17;;;;;;;1.25;0.32;;;;;;;1.10;100.00;97173.91;4769421;30;20032;-80
2022/02/19 02:24:42;;;;;;;0.50;0.30;;;;;;;1.06;100.00;97175.38;4762558;30;20100;-80
2022/02/19 02:27:12;;;;;;;0.63;0.10;;;;;;;1.09;100.00;97182.88;4781491;30;20089;-79
2022/02/19 02:29:48;;;;;;;1.45;0.28;;;;;;;0.89;100.00;97175.22;4770592;30;20111;-79
2022/02/19 02:32:14;;;;;;;0.63;0.20;;;;;;;0.76;100.00;97162.19;4787182;29;20142;-80
2022/02/19 02:34:57;;;;;;;1.27;0.20;;;;;;;0.63;100.00;97166.66;4788541;29;20035;-80
2022/02/19 02:37:25;;;;;;;0.90;0.10;;;;;;;0.90;100.00;97221.88;4765844;30;20051;-79
2022/02/19 02:39:52;;;;;;;0.05;0.05;;;;;;;1.01;100.00;97225.56;4772510;30;20039;-80
2022/02/19 02:42:19;;;;;;;1.08;0.00;;;;;;;0.96;100.00;97241.31;4740381;30;20050;-79
2022/02/19 02:44:45;;;;;;;1.17;0.08;;;;;;;0.93;100.00;97243.41;4770389;30;20483;-79
2022/02/19 02:47:12;;;;;;;0.43;0.20;;;;;;;0.92;100.00;97251.53;4769024;30;20040;-80
2022/02/19 02:49:38;;;;;;;1.65;0.10;;;;;;;0.83;100.00;97243.13;4768356;30;20044;-80
2022/02/19 02:52:07;;;;;;;1.23;0.20;;;;;;;0.93;100.00;97264.56;4769462;30;20052;-80
2022/02/19 02:54:33;;;;;;;0.52;0.10;;;;;;;0.95;100.00;97277.56;4771260;30;20040;-79
2022/02/19 02:57:00;;;;;;;0.70;0.10;;;;;;;0.76;100.00;97257.47;4772533;30;20499;-81
2022/02/19 02:59:25;;;;;;;0.75;0.38;;;;;;;0.99;100.00;97299.09;4768886;30;20031;-80
2022/02/19 03:01:51;;;;;;;0.20;0.03;;;;;;;0.97;100.00;97301.19;4767578;30;20167;-80
2022/02/19 03:04:22;;;;;;;0.00;0.00;;;;;;;0.99;100.00;97304.41;4774185;30;20078;-79
2022/02/19 03:06:48;;;;;;;0.00;0.00;;;;;;;0.91;100.00;97316.91;4771954;30;20408;-78
2022/02/19 03:09:13;;;;;;;0.90;0.05;;;;;;;0.96;100.00;97326.00;4766279;30;20046;-78
2022/02/19 03:11:39;;;;;;;0.10;0.00;;;;;;;0.87;100.00;97309.66;4776754;30;20124;-79
2022/02/19 03:14:10;;;;;;;0.10;0.00;;;;;;;0.75;100.00;97320.16;4771783;30;20071;-79
2022/02/19 03:16:36;;;;;;;0.10;0.00;;;;;;;0.93;100.00;97354.56;4773744;30;20578;-78
2022/02/19 03:19:02;;;;;;;0.45;0.10;;;;;;;0.87;100.00;97333.47;4772978;30;20408;-79
2022/02/19 03:21:27;;;;;;;0.38;0.10;;;;;;;1.09;100.00;97366.41;4757090;30;20028;-79
2022/02/19 03:23:53;;;;;;;0.38;0.10;;;;;;;1.02;100.00;97375.44;4769451;30;20036;-78
2022/02/19 03:26:19;;;;;;;0.68;0.25;;;;;;;1.00;100.00;97388.09;4784471;29;20468;-79
2022/02/19 03:28:45;;;;;;;0.28;0.10;;;;;;;0.99;100.00;97378.53;4752844;30;20051;-79
2022/02/19 03:31:10;;;;;;;0.60;0.20;;;;;;;0.39;100.00;97289.22;4782899;29;20051;-80
2022/02/19 03:33:35;;;;;;;0.50;0.30;;;;;;;1.10;100.00;97422.81;4772142;30;20130;-78
2022/02/19 03:36:01;;;;;;;0.63;0.20;;;;;;;1.17;100.00;97448.16;4755262;30;20031;-79
2022/02/19 03:38:26;;;;;;;0.60;0.20;;;;;;;1.25;100.00;97447.06;4772588;30;20043;-79
2022/02/19 03:40:51;;;;;;;0.28;0.10;;;;;;;1.19;100.00;97466.47;4771353;30;20150;-79
2022/02/19 03:43:17;;;;;;;0.10;0.00;;;;;;;1.20;100.00;97488.50;4765125;30;20035;-79
2022/02/19 03:45:45;;;;;;;0.10;0.03;;;;;;;1.16;100.00;97488.13;4776455;30;20097;-79
2022/02/19 03:48:11;;;;;;;0.00;0.00;;;;;;;0.85;100.00;97468.66;4787090;30;20027;-79
2022/02/19 03:50:37;;;;;;;0.25;0.03;;;;;;;1.21;100.00;97504.16;4771695;30;20046;-78
2022/02/19 03:53:03;;;;;;;0.55;0.00;;;;;;;1.15;100.00;97503.19;4770867;30;20043;-79
2022/02/19 03:55:28;;;;;;;0.40;0.10;;;;;;;1.07;100.00;97502.66;4771178;30;20434;-78
2022/02/19 03:57:53;;;;;;;0.30;0.13;;;;;;;1.27;100.00;97518.34;4756567;30;20036;-78
2022/02/19 04:00:20;;;;;;;0.60;0.08;;;;;;;1.20;100.00;97517.63;4773434;30;20050;-79
2022/02/19 04:02:46;;;;;;;0.40;0.10;;;;;;;1.21;100.00;97524.53;4774465;30;20036;-79
2022/02/19 04:05:13;;;;;;;0.30;0.20;;;;;;;1.05;100.00;97521.41;4755351;30;20035;-79
2022/02/19 04:07:39;;;;;;;0.47;0.10;;;;;;;1.31;100.00;97578.59;4771313;30;20459;-79
2022/02/19 04:10:06;;;;;;;2.53;0.20;;;;;;;1.31;100.00;97599.00;4771215;30;20042;-79
2022/02/19 04:12:32;;;;;;;2.22;0.35;;;;;;;1.37;100.00;97601.56;4757371;30;20042;-78
2022/02/19 04:14:57;;;;;;;2.35;0.20;;;;;;;1.02;100.00;97580.09;4774181;29;20040;-79
2022/02/19 04:17:23;;;;;;;1.40;0.30;;;;;;;1.21;100.00;97585.44;4740919;30;20039;-78
2022/02/19 04:19:53;;;;;;;1.08;0.10;;;;;;;0.81;100.00;97559.31;4785534;30;20043;-78
2022/02/19 04:22:21;;;;;;;1.67;0.20;;;;;;;1.36;100.00;97655.59;4770624;30;20177;-78
2022/02/19 04:24:47;;;;;;;2.42;0.20;;;;;;;1.44;100.00;97645.75;4771248;30;20114;-79
2022/02/19 04:27:13;;;;;;;1.52;0.28;;;;;;;1.44;100.00;97667.75;4769157;30;20126;-79
2022/02/19 04:29:39;;;;;;;0.60;0.10;;;;;;;1.37;100.00;97667.81;4770401;30;20344;-79
2022/02/19 04:32:05;;;;;;;1.30;0.30;;;;;;;1.11;100.00;97642.34;4754816;30;20070;-79
2022/02/19 04:34:31;;;;;;;1.10;0.20;;;;;;;1.16;100.00;97673.50;4770404;30;20093;-79
2022/02/19 04:36:56;;;;;;;1.10;0.20;;;;;;;1.30;100.00;97712.09;4769125;30;20426;-79
2022/02/19 04:39:21;;;;;;;1.40;0.28;;;;;;;1.22;100.00;97733.53;4769740;30;20047;-79
2022/02/19 04:41:47;;;;;;;0.80;0.10;;;;;;;1.25;100.00;97742.88;4770541;30;20048;-79
2022/02/19 04:44:14;;;;;;;0.30;0.00;;;;;;;0.78;100.00;97700.81;4770015;30;20432;-79
2022/02/19 04:46:39;;;;;;;0.43;0.10;;;;;;;1.28;100.00;97775.03;4766775;30;20478;-79
2022/02/19 04:49:05;;;;;;;1.27;0.10;;;;;;;1.25;100.00;97783.41;4770310;30;20131;-79
2022/02/19 04:51:30;;;;;;;4.25;0.20;;;;;;;1.02;100.00;97752.19;4769725;30;20051;-79
2022/02/19 04:53:56;;;;;;;0.93;0.10;;;;;;;1.23;100.00;97811.97;4771943;30;20124;-79
2022/02/19 04:56:21;;;;;;;2.13;0.15;;;;;;;1.26;100.00;97837.19;4760879;30;20104;-79
2022/02/19 04:58:47;;;;;;;0.50;0.10;;;;;;;0.96;100.00;97805.16;4754722;30;20050;-79
2022/02/19 05:01:13;;;;;;;1.08;0.20;;;;;;;1.30;100.00;97860.41;4770909;30;20459;-79
2022/02/19 05:03:38;;;;;;;1.58;0.10;;;;;;;1.26;100.00;97856.56;4769692;30;20028;-79
2022/02/19 05:06:04;;;;;;;1.55;0.22;;;;;;;1.25;100.00;97899.97;4773919;30;20086;-79
2022/02/19 05:08:30;;;;;;;0.95;0.20;;;;;;;1.25;100.00;97896.50;4771826;29;20185;-79
2022/02/19 05:10:56;;;;;;;1.30;0.20;;;;;;;1.23;100.00;97885.31;4770773;30;20036;-79
2022/02/19 05:13:21;;;;;;;1.83;0.20;;;;;;;1.22;100.00;97903.03;4769802;30;20446;-79
2022/02/19 05:15:47;;;;;;;0.52;0.15;;;;;;;1.24;100.00;97914.22;4770671;30;20134;-79
2022/02/19 05:18:14;;;;;;;0.65;0.10;;;;;;;1.28;100.00;97920.72;4754284;30;20048;-80
2022/02/19 05:20:41;;;;;;;1.27;0.30;;;;;;;1.28;100.00;97949.06;4771070;30;20382;-79
2022/02/19 05:23:06;;;;;;;0.90;0.20;;;;;;;1.29;100.00;97951.53;4770187;30;20036;-80
2022/02/19 05:25:32;;;;;;;1.42;0.20;;;;;;;1.29;100.00;97967.41;4768259;30;20398;-79
2022/02/19 05:27:57;;;;;;;2.20;0.28;;;;;;;1.36;100.00;97973.50;4741322;30;20115;-78
2022/02/19 05:30:23;;;;;;;1.98;0.40;;;;;;;1.39;100.00;97996.91;4779665;30;20081;-79
2022/02/19 05:32:50;;;;;;;0.88;0.20;;;;;;;1.43;100.00;98015.88;4750831;30;20087;-79
2022/02/19 05:35:15;;;;;;;1.40;0.20;;;;;;;1.47;100.00;98018.91;4769833;30;20051;-79
2022/02/19 05:37:41;;;;;;;3.85;0.40;;;;;;;1.50;100.00;98015.84;4768236;30;20042;-78
2022/02/19 05:40:07;;;;;;;1.02;0.13;;;;;;;1.17;100.00;97953.19;4769239;30;20118;-79
2022/02/19 05:42:32;;;;;;;3.35;0.20;;;;;;;1.34;100.00;98023.22;4769065;29;20516;-79
2022/02/19 05:44:58;;;;;;;1.13;0.30;;;;;;;1.47;100.00;98066.59;4767727;30;20036;-79
2022/02/19 05:47:23;;;;;;;0.80;0.20;;;;;;;0.89;100.00;97962.22;4769117;30;20044;-78
2022/02/19 05:49:50;;;;;;;1.08;0.20;;;;;;;1.62;100.00;98089.19;4769006;30;20477;-79
2022/02/19 05:52:17;;;;;;;2.45;0.30;;;;;;;1.52;100.00;98086.13;4768801;30;20035;-78
2022/02/19 05:54:45;;;;;;;0.68;0.20;;;;;;;1.50;100.00;98103.28;4768617;30;20489;-79
2022/02/19 05:57:11;;;;;;;1.13;0.30;;;;;;;1.49;100.00;98093.69;4766773;30;20106;-78
2022/02/19 05:59:37;;;;;;;0.68;0.20;;;;;;;1.48;100.00;98121.22;4775565;30;20573;-79
2022/02/19 06:02:04;;;;;;;0.80;0.20;;;;;;;1.53;100.00;98132.03;4774889;30;20127;-79
2022/02/19 06:04:30;;;;;;;2.95;0.20;;;;;;;1.55;100.00;98129.97;4770037;30;20047;-78
2022/02/19 06:06:56;;;;;;;0.52;0.13;;;;;;;1.53;100.00;98132.84;4771176;30;20028;-79
2022/02/19 06:09:22;;;;;;;0.95;0.28;;;;;;;1.53;100.00;98143.44;4774810;30;20554;-79
2022/02/19 06:11:47;;;;;;;0.82;0.20;;;;;;;1.35;100.00;98130.81;4758420;30;20047;-79
2022/02/19 06:14:13;;;;;;;2.47;0.40;;;;;;;1.64;100.00;98176.44;4770636;30;20036;-78
2022/02/19 06:16:40;;;;;;;0.15;0.00;;;;;;;1.70;100.00;98186.22;4768760;30;20040;-78
2022/02/19 06:19:05;;;;;;;0.93;0.10;;;;;;;1.78;100.00;98188.63;4754656;30;20050;-78
2022/02/19 06:21:31;;;;;;;0.20;0.10;;;;;;;1.82;100.00;98197.84;4768531;30;20036;-79
2022/02/19 06:23:56;;;;;;;0.65;0.10;;;;;;;1.93;100.00;98228.19;4760201;30;20069;-79
2022/02/19 06:26:22;;;;;;;1.00;0.20;;;;;;;1.93;100.00;98248.59;4738595;30;20412;-79
2022/02/19 06:28:47;;;;;;;1.20;0.10;;;;;;;1.80;100.00;98238.81;4766207;30;20047;-78
2022/02/19 06:31:13;;;;;;;1.58;0.45;;;;;;;1.80;100.00;98242.28;4754876;30;20036;-78
2022/02/19 06:33:39;;;;;;;0.20;0.10;;;;;;;1.50;100.00;98194.19;4789592;29;20044;-79
2022/02/19 06:36:05;;;;;;;1.95;0.20;;;;;;;1.82;100.00;98265.94;4769241;30;20028;-79
2022/02/19 06:38:32;;;;;;;0.52;0.20;;;;;;;1.98;100.00;98301.81;4773208;30;20032;-79
2022/02/19 06:40:58;;;;;;;0.45;0.20;;;;;;;0.96;100.00;98150.19;4772565;30;20308;-79
2022/02/19 06:43:24;;;;;;;1.65;0.25;;;;;;;1.62;100.00;98280.03;4773533;30;20104;-79
2022/02/19 06:45:49;;;;;;;1.48;0.22;;;;;;;1.99;100.00;98337.97;4774324;30;20393;-79
2022/02/19 06:48:14;;;;;;;1.60;0.20;;;;;;;1.93;100.00;98360.78;4773025;30;20032;-78
2022/02/19 06:50:40;;;;;;;0.57;0.20;;;;;;;1.68;100.00;98333.22;4757896;30;20042;-80
2022/02/19 06:53:05;;;;;;;0.35;0.10;;;;;;;1.73;100.00;98347.53;4775056;30;20043;-78
2022/02/19 06:55:31;;;;;;;0.95;0.20;;;;;;;1.91;100.00;98384.03;4782389;30;20482;-80
2022/02/19 06:57:57;;;;;;;1.65;0.20;;;;;;;1.88;100.00;98398.50;4771318;30;20058;-80
2022/02/19 07:00:22;;;;;;;1.45;0.20;;;;;;;1.85;100.00;98406.91;4758564;30;20463;-80
2022/02/19 07:02:47;;;;;;;0.82;0.20;;;;;;;1.86;100.00;98420.97;4770513;30;20043;-80
2022/02/19 07:05:13;;;;;;;4.10;0.40;;;;;;;1.90;100.00;98430.16;4777147;30;20886;-79
2022/02/19 07:07:38;;;;;;;2.00;0.30;;;;;;;1.83;100.00;98424.03;4774098;30;20344;-81
2022/02/19 07:10:06;;;;;;;0.63;0.30;;;;;;;2.00;100.00;98456.28;4785880;29;20042;-82
2022/02/19 07:12:32;;;;;;;0.70;0.10;;;;;;;1.63;100.00;98403.59;4758858;30;20043;-81
2022/02/19 07:14:57;;;;;;;1.13;0.30;;;;;;;1.86;100.00;98448.28;4758016;30;20096;-79
2022/02/19 07:17:22;;;;;;;3.70;0.63;;;;;;;2.03;100.00;98499.13;4771660;30;20063;-81
2022/02/19 07:19:48;;;;;;;2.35;0.40;;;;;;;2.02;100.00;98501.97;4757114;30;20036;-79
2022/02/19 07:22:13;;;;;;;4.00;0.50;;;;;;;2.00;100.00;98498.72;4757639;30;20063;-78
2022/02/19 07:24:39;;;;;;;3.83;0.60;;;;;;;1.74;100.00;98479.06;4778041;30;20096;-79
2022/02/19 07:27:05;;;;;;;4.70;0.80;;;;;;;2.10;100.00;98538.94;4772274;30;20445;-80
2022/02/19 07:29:30;;;;;;;2.47;0.70;;;;;;;2.03;100.00;98538.91;4780457;30;20047;-79
2022/02/19 07:31:56;;;;;;;2.63;0.40;;;;;;;2.16;100.00;98553.25;4788545;30;20052;-79
2022/02/19 07:34:21;;;;;;;1.67;0.40;;;;;;;2.15;100.00;98556.91;4789721;29;20039;-79
2022/02/19 07:36:46;;;;;;;4.22;0.80;;;;;;;2.24;100.00;98569.78;4777460;30;20066;-78
2022/02/19 07:39:12;;;;;;;3.97;0.77;;;;;;;2.31;100.00;98583.06;4772322;30;20035;-79
2022/02/19 07:41:38;;;;;;;5.63;0.77;;;;;;;2.33;100.00;98589.81;4775167;30;20101;-79
2022/02/19 07:44:06;;;;;;;2.92;0.63;;;;;;;2.19;100.00;98585.50;4768998;30;20128;-79
2022/02/19 07:46:31;;;;;;;2.60;0.73;;;;;;;2.37;100.00;98610.66;4771624;30;20074;-77
2022/02/19 07:48:57;;;;;;;6.85;0.98;;;;;;;2.31;100.00;98599.81;4755011;30;20059;-78
2022/02/19 07:59:34;;;;;;;3.53;0.80;;;;;;;2.60;100.00;98648.28;4771125;30;20046;-78
2022/02/19 08:01:59;;;;;;;4.30;0.80;;;;;;;2.42;100.00;98613.50;4769468;30;20035;-78
2022/02/19 08:04:26;;;;;;;3.60;0.93;;;;;;;2.79;100.00;98652.00;4768362;30;20036;-78
2022/02/19 08:06:51;;;;;;;7.05;1.20;;;;;;;2.74;100.00;98654.44;4754345;30;20055;-78
2022/02/19 08:09:16;;;;;;;3.97;0.73;;;;;;;2.68;100.00;98642.78;4769062;30;20036;-78
2022/02/19 08:11:42;;;;;;;5.68;0.98;;;;;;;2.45;100.00;98626.38;4768501;30;20027;-77
2022/02/19 08:14:07;;;;;;;10.57;1.45;;;;;;;2.62;100.00;98656.88;4770425;30;20374;-78
2022/02/19 08:16:33;;;;;;;4.55;0.98;;;;;;;2.85;100.00;98695.50;4755150;30;20101;-78
2022/02/19 08:18:59;;;;;;;8.65;1.55;;;;;;;2.88;100.00;98709.22;4777752;29;20113;-78
2022/02/19 08:21:26;;;;;;;4.68;1.20;;;;;;;2.89;100.00;98725.97;4765868;30;20058;-79
2022/02/19 08:23:51;;;;;;;4.35;0.90;;;;;;;2.71;100.00;98714.06;4782508;30;20031;-81
2022/02/19 08:26:23;;;;;;;4.97;1.30;;;;;;;2.87;100.00;98743.94;4779440;29;20439;-79
2022/02/19 08:28:49;;;;;;;7.45;1.38;;;;;;;2.94;100.00;98769.50;4773128;30;20056;-78
2022/02/19 08:31:14;;;;;;;11.00;2.23;;;;;;;2.87;100.00;98738.63;4640772;29;4073557;-78
2022/02/19 08:33:40;;;;;;;10.63;1.90;;;;;;;3.01;100.00;98788.97;4770122;30;20062;-78
2022/02/19 08:36:07;;;;;;;10.43;1.73;;;;;;;2.93;100.00;98786.47;4755419;30;20031;-78
2022/02/19 08:38:33;;;;;;;11.63;1.60;;;;;;;3.01;100.00;98801.41;4771693;30;20063;-78
2022/02/19 08:40:58;;;;;;;9.68;1.55;;;;;;;2.82;100.00;98768.47;4770456;30;20173;-78
2022/02/19 08:43:23;;;;;;;6.90;1.55;;;;;;;3.09;100.00;98811.88;4770140;30;20093;-78
2022/02/19 08:45:49;;;;;;;8.85;1.65;;;;;;;2.89;100.00;98795.06;4739817;30;20063;-78
2022/02/19 08:48:14;;;;;;;8.55;1.42;;;;;;;3.14;100.00;98829.88;4778475;30;20031;-78
2022/02/19 08:50:46;;;;;;;7.10;1.30;;;;;;;3.14;100.00;98845.81;4775357;30;20028;-81
2022/02/19 08:53:12;;;;;;;10.15;1.45;;;;;;;2.77;100.00;98787.63;4780944;30;20370;-78
2022/02/19 08:55:39;;;;;;;6.78;1.38;;;;;;;2.96;100.00;98846.38;4757494;30;20047;-79
2022/02/19 08:58:05;;;;;;;4.65;0.90;;;;;;;3.16;100.00;98865.84;4780109;29;20047;-78
2022/02/19 09:00:31;;;;;;;4.10;0.93;;;;;;;2.63;100.00;98791.25;4762424;30;20028;-79
2022/02/19 09:02:57;;;;;;;7.47;1.20;;;;;;;3.08;100.00;98876.69;4777958;29;20096;-78
2022/02/19 09:05:23;;;;;;;13.30;1.63;;;;;;;3.22;100.00;98904.94;4764900;30;20075;-78
2022/02/19 09:07:49;;;;;;;9.63;1.30;;;;;;;3.27;100.00;98910.47;4767829;30;20160;-78
2022/02/19 09:10:16;;;;;;;5.72;1.30;;;;;;;3.22;100.00;98912.09;4770843;30;20119;-78
2022/02/19 09:12:46;;;;;;;6.53;0.70;;;;;;;2.87;100.00;98855.50;4783963;30;20031;-78
2022/02/19 09:15:13;;;;;;;6.57;1.40;;;;;;;3.20;100.00;98928.22;4768958;30;20037;-78
2022/02/19 09:17:39;;;;;;;8.73;1.50;;;;;;;3.11;100.00;98908.13;4767898;30;20108;-77
2022/02/19 09:20:05;;;;;;;9.50;1.13;;;;;;;3.25;100.00;98941.75;4768790;30;20043;-78
2022/02/19 09:22:31;;;;;;;5.53;1.00;;;;;;;3.29;100.00;98950.16;4769450;30;20470;-78
2022/02/19 09:24:56;;;;;;;3.13;0.63;;;;;;;3.13;100.00;98919.41;4770614;30;20119;-78
2022/02/19 09:27:21;;;;;;;5.70;0.90;;;;;;;3.22;100.00;98942.16;4769441;30;20367;-79
2022/02/19 09:29:47;;;;;;;8.38;0.68;;;;;;;3.32;100.00;98956.91;4755227;30;20067;-79
2022/02/19 09:32:13;;;;;;;4.07;0.77;;;;;;;3.27;100.00;98947.66;4767561;30;20059;-78
2022/02/19 09:34:38;;;;;;;6.45;1.30;;;;;;;3.35;100.00;98965.31;4771169;30;20043;-78
2022/02/19 09:37:04;;;;;;;7.00;1.23;;;;;;;3.41;100.00;98977.81;4768993;30;20032;-78
2022/02/19 09:39:29;;;;;;;8.93;1.20;;;;;;;3.53;100.00;98986.03;4757708;30;20367;-80
2022/02/19 09:41:59;;;;;;;7.95;1.15;;;;;;;3.48;100.00;98991.97;4757092;30;20032;-79
2022/02/19 09:44:25;;;;;;;7.47;0.70;;;;;;;3.52;100.00;98984.41;4766634;30;20036;-79
2022/02/19 09:46:53;;;;;;;3.13;0.95;;;;;;;3.54;100.00;98998.31;4772400;30;20102;-78
2022/02/19 09:49:20;;;;;;;4.80;0.60;;;;;;;3.52;100.00;98982.56;4773648;30;20023;-79
2022/02/19 09:51:48;;;;;;;8.52;1.60;;;;;;;3.61;100.00;98995.69;4769195;30;20036;-78
2022/02/19 09:54:13;;;;;;;8.30;0.85;;;;;;;3.56;100.00;99006.09;4753226;30;20035;-79
2022/02/19 09:56:39;;;;;;;4.85;0.88;;;;;;;3.53;100.00;99009.97;4770373;30;20050;-79
2022/02/19 09:59:11;;;;;;;6.40;1.25;;;;;;;3.56;100.00;99022.06;4752863;30;20382;-79
2022/02/19 10:01:39;;;;;;;7.50;1.10;;;;;;;3.56;100.00;99025.53;4770257;30;20443;-78
2022/02/19 10:04:06;;;;;;;5.57;1.17;;;;;;;3.52;100.00;99045.56;4781782;30;20101;-79
2022/02/19 10:06:37;;;;;;;6.25;1.17;;;;;;;3.47;100.00;99058.63;4769499;30;20534;-78
2022/02/19 10:09:34;;;;;;;8.20;1.13;;;;;;;3.17;100.00;99021.63;4772290;30;20185;-78
2022/02/19 10:12:08;;;;;;;6.90;1.20;;;;;;;3.40;100.00;99055.09;4774056;30;20036;-79
2022/02/19 10:14:36;;;;;;;4.03;0.70;;;;;;;3.49;100.00;99080.53;4773004;30;20039;-79
2022/02/19 10:17:18;;;;;;;8.70;1.67;;;;;;;3.50;100.00;99088.28;4744653;30;20044;-79
2022/02/19 10:19:59;;;;;;;7.35;1.10;;;;;;;3.64;100.00;99091.03;4777108;30;20060;-79
2022/02/19 10:22:46;;;;;;;11.98;1.30;;;;;;;3.75;100.00;99101.94;4774101;30;20027;-79
2022/02/19 10:25:15;;;;;;;8.20;1.10;;;;;;;3.71;100.00;99106.03;4777564;30;20068;-79
2022/02/19 10:27:44;;;;;;;7.07;0.90;;;;;;;3.76;100.00;99108.91;4775438;30;20374;-79
2022/02/19 10:30:12;;;;;;;6.47;0.90;;;;;;;3.66;100.00;99115.59;4770183;30;20031;-79
2022/02/19 10:32:57;;;;;;;8.70;1.27;;;;;;;3.51;100.00;99103.25;4772296;30;20059;-78
2022/02/19 10:35:40;;;;;;;6.82;0.98;;;;;;;3.64;100.00;99136.25;4770524;30;20047;-78
2022/02/19 10:38:16;;;;;;;6.13;0.70;;;;;;;3.63;100.00;99137.28;4769514;30;20408;-78
2022/02/19 10:40:46;;;;;;;8.23;0.90;;;;;;;3.72;100.00;99142.25;4777528;30;20027;-79
2022/02/19 10:43:29;;;;;;;5.95;0.85;;;;;;;3.73;100.00;99148.38;4772673;30;20040;-79
2022/02/19 10:46:02;;;;;;;6.03;0.90;;;;;;;3.89;100.00;99163.22;4779119;30;20033;-79
2022/02/19 10:48:31;;;;;;;8.55;1.00;;;;;;;3.89;100.00;99155.22;4770775;29;20035;-79
2022/02/19 10:51:16;;;;;;;4.22;0.90;;;;;;;4.00;100.00;99178.63;4778772;30;20035;-78
2022/02/19 10:53:49;;;;;;;11.45;1.02;;;;;;;3.93;100.00;99183.91;4780478;30;20105;-79
2022/02/19 10:56:18;;;;;;;7.40;1.20;;;;;;;3.96;100.00;99180.84;4772361;30;20035;-79
2022/02/19 10:59:08;;;;;;;10.88;1.13;;;;;;;3.93;100.00;99180.44;4768169;30;20039;-79
2022/02/19 11:01:41;;;;;;;4.40;0.82;;;;;;;3.96;100.00;99196.81;4777507;30;20054;-78
2022/02/19 11:04:08;;;;;;;10.35;1.23;;;;;;;3.96;100.00;99201.31;4789807;29;20396;-79
2022/02/19 11:06:33;;;;;;;3.50;0.65;;;;;;;3.98;100.00;99196.63;4792581;29;20477;-78
2022/02/19 11:09:08;;;;;;;4.47;0.65;;;;;;;3.95;100.00;99192.53;4756774;30;20048;-79
2022/02/19 11:11:35;;;;;;;9.15;0.85;;;;;;;4.06;100.00;99217.75;4780214;30;20032;-78
2022/02/19 11:14:06;;;;;;;5.38;0.70;;;;;;;4.02;100.00;99205.88;4771717;30;20089;-80
2022/02/19 11:16:33;;;;;;;8.23;0.70;;;;;;;4.22;100.00;99213.97;4771269;30;20069;-79
2022/02/19 11:19:00;;;;;;;8.18;0.85;;;;;;;4.25;100.00;99202.91;4741468;30;20135;-79
2022/02/19 11:21:29;;;;;;;6.78;0.80;;;;;;;4.41;100.00;99204.44;4757520;30;20036;-79
2022/02/19 11:23:54;;;;;;;7.90;1.10;;;;;;;4.44;100.00;99217.34;4773304;30;20040;-80
2022/02/19 11:26:23;;;;;;;7.32;0.70;;;;;;;4.51;100.00;99220.88;4772323;30;20118;-80
2022/02/19 11:28:51;;;;;;;8.88;1.02;;;;;;;4.34;100.00;99199.09;4774741;30;20035;-80
2022/02/19 11:31:18;;;;;;;9.13;0.82;;;;;;;4.33;100.00;99204.59;4787265;30;20043;-80
2022/02/19 11:33:49;;;;;;;6.05;0.50;;;;;;;4.42;100.00;99224.72;4771273;30;20043;-81
2022/02/19 11:36:15;;;;;;;4.53;0.88;;;;;;;4.45;100.00;99237.63;4772387;30;20039;-80
2022/02/19 11:39:06;;;;;;;4.60;0.50;;;;;;;4.49;100.00;99244.19;4775370;30;20420;-80
2022/02/19 11:41:42;;;;;;;10.13;0.82;;;;;;;4.37;100.00;99224.47;4771227;30;20046;-79